FIN15 EFHK-KJFK
Flight info
| Callsign | FIN15 |
|---|---|
| Flight time | N/A |
| Altitude | 36000 |
| Route | NEPEK Y357 EVLIT DCT TOGMI DCT OLGUV DCT ISVIG/M085F380 DCT 62N010W 6030N02000W 5930N03000W 57N040W 51N050W DCT ALLRY/N0493F380 DCT BRADD DCT PLYMM PARCH4 |
| Aircraft | A359/H-SDE2E3GHIJ3J4J5LM1ORWXY/LB1D1 |
Departure
| Time | 2026-04-24 04:34 |
|---|---|
| Airport | Helsinki Vantaa Airport (EFHK) |
Arrival
| Time | N/A |
|---|---|
| Airport | John F. Kennedy International Airport (KJFK) |
| Time | Latitude | Longitude | Altitude | Speed | Heading |
|---|---|---|---|---|---|
| 2026-04-24 04:12 | 60.31558 | 24.95802 | 174 ft | 0 kts | 137° |
| 2026-04-24 04:23 | 60.31562 | 24.95795 | 173 ft | 4 kts | 137° |
| 2026-04-24 04:23 | 60.31581 | 24.95759 | 173 ft | 4 kts | 139° |
| 2026-04-24 04:23 | 60.31600 | 24.95726 | 176 ft | 5 kts | 123° |
| 2026-04-24 04:24 | 60.31605 | 24.95701 | 177 ft | 7 kts | 83° |
| 2026-04-24 04:24 | 60.31603 | 24.95674 | 177 ft | 4 kts | 33° |
| 2026-04-24 04:24 | 60.31581 | 24.95656 | 176 ft | 4 kts | 20° |
| 2026-04-24 04:24 | 60.31573 | 24.95649 | 176 ft | 1 kts | 24° |
| 2026-04-24 04:28 | 60.31581 | 24.95657 | 176 ft | 3 kts | 24° |
| 2026-04-24 04:28 | 60.31607 | 24.95667 | 177 ft | 4 kts | 5° |
| 2026-04-24 04:29 | 60.31660 | 24.95609 | 178 ft | 13 kts | 326° |
| 2026-04-24 04:29 | 60.31739 | 24.95574 | 178 ft | 12 kts | 18° |
| 2026-04-24 04:29 | 60.31809 | 24.95696 | 177 ft | 14 kts | 47° |
| 2026-04-24 04:29 | 60.31879 | 24.95852 | 177 ft | 15 kts | 47° |
| 2026-04-24 04:30 | 60.31949 | 24.96007 | 178 ft | 15 kts | 47° |
| 2026-04-24 04:30 | 60.32026 | 24.96178 | 176 ft | 18 kts | 48° |
| 2026-04-24 04:30 | 60.32116 | 24.96375 | 174 ft | 19 kts | 47° |
| 2026-04-24 04:30 | 60.32205 | 24.96573 | 175 ft | 20 kts | 48° |
| 2026-04-24 04:31 | 60.32301 | 24.96782 | 172 ft | 21 kts | 48° |
| 2026-04-24 04:31 | 60.32404 | 24.97012 | 171 ft | 22 kts | 47° |
| 2026-04-24 04:31 | 60.32508 | 24.97242 | 169 ft | 24 kts | 48° |
| 2026-04-24 04:31 | 60.32622 | 24.97488 | 166 ft | 25 kts | 47° |
| 2026-04-24 04:32 | 60.32741 | 24.97752 | 163 ft | 26 kts | 48° |
| 2026-04-24 04:32 | 60.32867 | 24.98020 | 163 ft | 25 kts | 40° |
| 2026-04-24 04:32 | 60.33010 | 24.97985 | 165 ft | 18 kts | 320° |
| 2026-04-24 04:32 | 60.33021 | 24.97801 | 168 ft | 9 kts | 232° |
| 2026-04-24 04:33 | 60.33017 | 24.97793 | 168 ft | 0 kts | 229° |
| 2026-04-24 04:33 | 60.33008 | 24.97773 | 168 ft | 8 kts | 228° |
| 2026-04-24 04:33 | 60.32876 | 24.97487 | 171 ft | 57 kts | 227° |
| 2026-04-24 04:33 | 60.32471 | 24.96593 | 181 ft | 114 kts | 227° |
| 2026-04-24 04:34 | 60.31822 | 24.95162 | 182 ft | 162 kts | 227° |
| 2026-04-24 04:34 | 60.31021 | 24.93459 | 695 ft | 163 kts | 230° |
| 2026-04-24 04:34 | 60.30126 | 24.92006 | 1270 ft | 173 kts | 214° |
| 2026-04-24 04:34 | 60.29025 | 24.90733 | 1529 ft | 195 kts | 211° |
| 2026-04-24 04:35 | 60.27755 | 24.89317 | 1754 ft | 215 kts | 211° |
| 2026-04-24 04:35 | 60.26433 | 24.87820 | 2152 ft | 225 kts | 212° |
| 2026-04-24 04:35 | 60.24891 | 24.86646 | 2474 ft | 246 kts | 187° |
| 2026-04-24 04:35 | 60.23236 | 24.87303 | 2980 ft | 251 kts | 148° |
| 2026-04-24 04:36 | 60.22048 | 24.89781 | 3612 ft | 247 kts | 114° |
| 2026-04-24 04:36 | 60.21326 | 24.92923 | 4274 ft | 249 kts | 108° |
| 2026-04-24 04:36 | 60.20886 | 24.95113 | 4702 ft | 251 kts | 105° |
| 2026-04-24 04:36 | 60.20584 | 24.98534 | 5279 ft | 248 kts | 82° |
| 2026-04-24 04:37 | 60.21073 | 25.03117 | 5810 ft | 260 kts | 67° |
| 2026-04-24 04:37 | 60.21629 | 25.06631 | 6408 ft | 265 kts | 67° |
| 2026-04-24 04:37 | 60.22002 | 25.09032 | 6838 ft | 267 kts | 67° |
| 2026-04-24 04:37 | 60.22545 | 25.12623 | 7511 ft | 269 kts | 67° |
| 2026-04-24 04:38 | 60.23074 | 25.16202 | 8156 ft | 272 kts | 67° |
| 2026-04-24 04:38 | 60.23611 | 25.19874 | 8822 ft | 275 kts | 67° |
| 2026-04-24 04:38 | 60.24149 | 25.23584 | 9499 ft | 277 kts | 66° |
| 2026-04-24 04:38 | 60.24691 | 25.27325 | 10118 ft | 280 kts | 66° |
| 2026-04-24 04:39 | 60.25251 | 25.31180 | 10441 ft | 294 kts | 66° |
| 2026-04-24 04:39 | 60.25843 | 25.35248 | 10665 ft | 311 kts | 66° |
| 2026-04-24 04:39 | 60.26461 | 25.39531 | 10906 ft | 326 kts | 67° |
| 2026-04-24 04:39 | 60.27147 | 25.43978 | 11128 ft | 337 kts | 62° |
| 2026-04-24 04:40 | 60.28330 | 25.47998 | 11474 ft | 331 kts | 41° |
| 2026-04-24 04:40 | 60.30120 | 25.50760 | 12004 ft | 321 kts | 21° |
| 2026-04-24 04:40 | 60.32186 | 25.52404 | 12605 ft | 319 kts | 14° |
| 2026-04-24 04:40 | 60.34333 | 25.53414 | 13189 ft | 316 kts | 4° |
| 2026-04-24 04:41 | 60.36521 | 25.53436 | 13742 ft | 314 kts | 351° |
| 2026-04-24 04:41 | 60.38611 | 25.52209 | 14246 ft | 315 kts | 336° |
| 2026-04-24 04:41 | 60.40415 | 25.49673 | 14727 ft | 322 kts | 318° |
| 2026-04-24 04:41 | 60.41855 | 25.46148 | 15215 ft | 326 kts | 315° |
| 2026-04-24 04:42 | 60.43457 | 25.42954 | 15670 ft | 323 kts | 323° |
| 2026-04-24 04:42 | 60.45190 | 25.40046 | 16193 ft | 323 kts | 325° |
| 2026-04-24 04:42 | 60.46942 | 25.37186 | 16706 ft | 324 kts | 325° |
| 2026-04-24 04:42 | 60.48683 | 25.34277 | 17191 ft | 326 kts | 324° |
| 2026-04-24 04:43 | 60.50408 | 25.31269 | 17673 ft | 328 kts | 323° |
| 2026-04-24 04:43 | 60.52107 | 25.28148 | 18143 ft | 330 kts | 322° |
| 2026-04-24 04:43 | 60.53771 | 25.24915 | 18542 ft | 332 kts | 321° |
| 2026-04-24 04:43 | 60.55400 | 25.21559 | 18924 ft | 335 kts | 320° |
| 2026-04-24 04:44 | 60.56988 | 25.18080 | 19306 ft | 337 kts | 318° |
| 2026-04-24 04:44 | 60.58533 | 25.14461 | 19704 ft | 340 kts | 316° |
| 2026-04-24 04:44 | 60.60026 | 25.10708 | 20089 ft | 343 kts | 315° |
| 2026-04-24 04:44 | 60.61462 | 25.06817 | 20465 ft | 346 kts | 313° |
| 2026-04-24 04:45 | 60.62838 | 25.02771 | 20843 ft | 349 kts | 311° |
| 2026-04-24 04:45 | 60.64140 | 24.98582 | 21220 ft | 352 kts | 309° |
| 2026-04-24 04:45 | 60.65365 | 24.94229 | 21582 ft | 356 kts | 307° |
| 2026-04-24 04:45 | 60.66501 | 24.89711 | 21929 ft | 360 kts | 304° |
| 2026-04-24 04:46 | 60.67536 | 24.85021 | 22290 ft | 365 kts | 302° |
| 2026-04-24 04:46 | 60.68445 | 24.80215 | 22622 ft | 370 kts | 299° |
| 2026-04-24 04:46 | 60.69232 | 24.75175 | 22975 ft | 376 kts | 295° |
| 2026-04-24 04:46 | 60.69863 | 24.69942 | 23301 ft | 382 kts | 292° |
| 2026-04-24 04:47 | 60.70398 | 24.64604 | 23579 ft | 383 kts | 293° |
| 2026-04-24 04:47 | 60.71164 | 24.59451 | 23850 ft | 376 kts | 300° |
| 2026-04-24 04:47 | 60.72228 | 24.54613 | 24148 ft | 371 kts | 306° |
| 2026-04-24 04:47 | 60.73408 | 24.49932 | 24426 ft | 372 kts | 306° |
| 2026-04-24 04:48 | 60.74582 | 24.45195 | 24699 ft | 374 kts | 305° |
| 2026-04-24 04:48 | 60.75778 | 24.40477 | 24984 ft | 375 kts | 306° |
| 2026-04-24 04:48 | 60.76970 | 24.35714 | 25257 ft | 377 kts | 305° |
| 2026-04-24 04:48 | 60.78135 | 24.30875 | 25535 ft | 380 kts | 304° |
| 2026-04-24 04:49 | 60.79268 | 24.25975 | 25822 ft | 382 kts | 303° |
| 2026-04-24 04:49 | 60.80364 | 24.21089 | 26110 ft | 384 kts | 303° |
| 2026-04-24 04:49 | 60.81464 | 24.16095 | 26382 ft | 386 kts | 302° |
| 2026-04-24 04:49 | 60.82562 | 24.11058 | 26649 ft | 388 kts | 302° |
| 2026-04-24 04:50 | 60.83660 | 24.06006 | 26958 ft | 389 kts | 302° |
| 2026-04-24 04:50 | 60.84763 | 24.00921 | 27242 ft | 391 kts | 302° |
| 2026-04-24 04:50 | 60.85871 | 23.95807 | 27532 ft | 393 kts | 302° |
| 2026-04-24 04:50 | 60.86980 | 23.90688 | 27804 ft | 394 kts | 302° |
| 2026-04-24 04:51 | 60.88097 | 23.85528 | 28095 ft | 396 kts | 302° |
| 2026-04-24 04:51 | 60.89217 | 23.80339 | 28382 ft | 398 kts | 302° |
| 2026-04-24 04:51 | 60.90341 | 23.75121 | 28668 ft | 400 kts | 301° |
| 2026-04-24 04:51 | 60.91466 | 23.69886 | 28952 ft | 402 kts | 301° |
| 2026-04-24 04:52 | 60.92594 | 23.64625 | 29227 ft | 404 kts | 301° |
| 2026-04-24 04:52 | 60.93727 | 23.59327 | 29512 ft | 406 kts | 301° |
| 2026-04-24 04:52 | 60.94862 | 23.54002 | 29811 ft | 408 kts | 301° |
| 2026-04-24 04:52 | 60.96000 | 23.48648 | 30033 ft | 410 kts | 301° |
| 2026-04-24 04:53 | 60.97145 | 23.43249 | 30267 ft | 412 kts | 301° |
| 2026-04-24 04:53 | 60.98293 | 23.37824 | 30498 ft | 414 kts | 301° |
| 2026-04-24 04:53 | 60.99442 | 23.32374 | 30735 ft | 416 kts | 300° |
| 2026-04-24 04:53 | 61.00580 | 23.26963 | 30965 ft | 417 kts | 300° |
| 2026-04-24 04:54 | 61.01749 | 23.21393 | 31204 ft | 419 kts | 300° |
| 2026-04-24 04:54 | 61.02905 | 23.15869 | 31416 ft | 421 kts | 300° |
| 2026-04-24 04:54 | 61.04067 | 23.10303 | 31650 ft | 422 kts | 300° |
| 2026-04-24 04:54 | 61.05216 | 23.04806 | 31859 ft | 424 kts | 300° |
| 2026-04-24 04:55 | 61.06414 | 22.99246 | 32062 ft | 425 kts | 300° |
| 2026-04-24 04:55 | 61.07640 | 22.93671 | 32265 ft | 426 kts | 301° |
| 2026-04-24 04:55 | 61.08875 | 22.88090 | 32465 ft | 427 kts | 300° |
| 2026-04-24 04:55 | 61.10104 | 22.82512 | 32754 ft | 427 kts | 300° |
| 2026-04-24 04:56 | 61.11330 | 22.76917 | 33046 ft | 426 kts | 300° |
| 2026-04-24 04:56 | 61.12546 | 22.71330 | 33335 ft | 426 kts | 300° |
| 2026-04-24 04:56 | 61.13757 | 22.65739 | 33606 ft | 425 kts | 300° |
| 2026-04-24 04:56 | 61.14963 | 22.60150 | 33886 ft | 425 kts | 300° |
| 2026-04-24 04:57 | 61.16166 | 22.54558 | 34117 ft | 425 kts | 300° |
| 2026-04-24 04:57 | 61.17365 | 22.48969 | 34303 ft | 426 kts | 299° |
| 2026-04-24 04:57 | 61.18569 | 22.43346 | 34499 ft | 427 kts | 299° |
| 2026-04-24 04:57 | 61.19770 | 22.37718 | 34697 ft | 427 kts | 299° |
| 2026-04-24 04:58 | 61.20972 | 22.32071 | 34893 ft | 428 kts | 299° |
| 2026-04-24 04:58 | 61.22173 | 22.26414 | 35092 ft | 428 kts | 299° |
| 2026-04-24 04:58 | 61.23371 | 22.20749 | 35273 ft | 429 kts | 299° |
| 2026-04-24 04:58 | 61.24569 | 22.15074 | 35475 ft | 429 kts | 299° |
| 2026-04-24 04:59 | 61.25762 | 22.09406 | 35649 ft | 429 kts | 298° |
| 2026-04-24 04:59 | 61.26958 | 22.03709 | 35820 ft | 430 kts | 298° |
| 2026-04-24 04:59 | 61.29367 | 21.92202 | 35863 ft | 438 kts | 298° |
| 2026-04-24 05:00 | 61.31767 | 21.80655 | 35858 ft | 437 kts | 298° |
| 2026-04-24 05:00 | 61.34167 | 21.69030 | 35860 ft | 437 kts | 298° |
| 2026-04-24 05:01 | 61.36565 | 21.57365 | 35863 ft | 437 kts | 298° |
| 2026-04-24 05:01 | 61.38953 | 21.45678 | 35868 ft | 437 kts | 297° |
| 2026-04-24 05:02 | 61.41327 | 21.33998 | 35875 ft | 437 kts | 297° |
| 2026-04-24 05:02 | 61.43693 | 21.22290 | 35885 ft | 438 kts | 297° |
| 2026-04-24 05:03 | 61.46053 | 21.10541 | 35894 ft | 438 kts | 297° |
| 2026-04-24 05:03 | 61.48405 | 20.98767 | 35907 ft | 439 kts | 297° |
| 2026-04-24 05:04 | 61.50731 | 20.87050 | 35907 ft | 439 kts | 297° |
| 2026-04-24 05:04 | 61.53063 | 20.75239 | 35913 ft | 439 kts | 296° |
| 2026-04-24 05:05 | 61.55384 | 20.63409 | 35919 ft | 439 kts | 296° |
| 2026-04-24 05:05 | 61.57697 | 20.51554 | 35913 ft | 439 kts | 296° |
| 2026-04-24 05:06 | 61.60003 | 20.39667 | 35918 ft | 439 kts | 296° |
| 2026-04-24 05:06 | 61.62295 | 20.27773 | 35935 ft | 440 kts | 296° |
| 2026-04-24 05:07 | 61.64584 | 20.15829 | 35921 ft | 440 kts | 295° |
| 2026-04-24 05:07 | 61.66861 | 20.03878 | 35935 ft | 440 kts | 295° |
| 2026-04-24 05:08 | 61.69129 | 19.91895 | 35939 ft | 441 kts | 295° |
| 2026-04-24 05:08 | 61.71388 | 19.79890 | 35940 ft | 441 kts | 295° |
| 2026-04-24 05:09 | 61.73643 | 19.67835 | 35943 ft | 442 kts | 295° |
| 2026-04-24 05:09 | 61.75857 | 19.55732 | 35942 ft | 444 kts | 292° |
| 2026-04-24 05:10 | 61.77528 | 19.43132 | 35952 ft | 446 kts | 288° |
| 2026-04-24 05:10 | 61.79051 | 19.30425 | 35956 ft | 447 kts | 288° |
| 2026-04-24 05:11 | 61.80536 | 19.17720 | 35960 ft | 447 kts | 287° |
| 2026-04-24 05:11 | 61.82023 | 19.04935 | 35964 ft | 448 kts | 287° |
| 2026-04-24 05:12 | 61.83507 | 18.92125 | 35964 ft | 449 kts | 287° |
| 2026-04-24 05:12 | 61.84984 | 18.79267 | 35968 ft | 449 kts | 287° |
| 2026-04-24 05:13 | 61.87179 | 18.59954 | 35973 ft | 450 kts | 287° |
| 2026-04-24 05:14 | 61.88630 | 18.47024 | 35977 ft | 451 kts | 286° |
| 2026-04-24 05:14 | 61.90069 | 18.34089 | 35984 ft | 451 kts | 286° |
| 2026-04-24 05:15 | 61.91501 | 18.21093 | 35985 ft | 452 kts | 286° |
| 2026-04-24 05:15 | 61.92914 | 18.08150 | 35988 ft | 453 kts | 286° |
| 2026-04-24 05:16 | 61.94324 | 17.95109 | 35991 ft | 454 kts | 285° |
| 2026-04-24 05:16 | 61.95724 | 17.82035 | 35998 ft | 455 kts | 285° |
| 2026-04-24 05:17 | 61.97115 | 17.68914 | 36001 ft | 455 kts | 285° |
| 2026-04-24 05:17 | 61.98498 | 17.55737 | 36005 ft | 456 kts | 285° |
| 2026-04-24 05:18 | 61.99867 | 17.42561 | 36007 ft | 457 kts | 285° |
| 2026-04-24 05:18 | 62.01227 | 17.29337 | 36014 ft | 457 kts | 285° |
| 2026-04-24 05:19 | 62.02577 | 17.16087 | 36015 ft | 458 kts | 284° |
| 2026-04-24 05:19 | 62.03916 | 17.02795 | 36022 ft | 459 kts | 284° |
| 2026-04-24 05:20 | 62.05242 | 16.89482 | 36025 ft | 459 kts | 284° |
| 2026-04-24 05:20 | 62.06559 | 16.76145 | 36025 ft | 460 kts | 284° |
| 2026-04-24 05:21 | 62.07855 | 16.62863 | 36034 ft | 461 kts | 284° |
| 2026-04-24 05:21 | 62.09147 | 16.49485 | 36029 ft | 461 kts | 284° |
| 2026-04-24 05:22 | 62.10430 | 16.36055 | 36034 ft | 462 kts | 283° |
| 2026-04-24 05:22 | 62.11702 | 16.22594 | 36039 ft | 462 kts | 283° |
| 2026-04-24 05:23 | 62.12961 | 16.09128 | 36042 ft | 462 kts | 283° |
| 2026-04-24 05:23 | 62.14207 | 15.95643 | 36046 ft | 463 kts | 283° |
| 2026-04-24 05:24 | 62.15441 | 15.82125 | 36051 ft | 463 kts | 283° |
| 2026-04-24 05:24 | 62.16664 | 15.68580 | 36049 ft | 464 kts | 282° |
| 2026-04-24 05:25 | 62.17873 | 15.55030 | 36055 ft | 464 kts | 282° |
| 2026-04-24 05:25 | 62.19064 | 15.41529 | 36055 ft | 464 kts | 282° |
| 2026-04-24 05:26 | 62.20251 | 15.27905 | 36059 ft | 465 kts | 282° |
| 2026-04-24 05:26 | 62.21228 | 15.16577 | 36062 ft | 465 kts | 282° |
| 2026-04-24 05:27 | 62.22390 | 15.02936 | 36059 ft | 466 kts | 282° |
| 2026-04-24 05:27 | 62.23542 | 14.89265 | 36057 ft | 466 kts | 281° |
| 2026-04-24 05:28 | 62.24680 | 14.75577 | 36051 ft | 466 kts | 281° |
| 2026-04-24 05:28 | 62.25804 | 14.61873 | 36049 ft | 467 kts | 281° |
| 2026-04-24 05:29 | 62.26918 | 14.48130 | 36048 ft | 467 kts | 281° |
| 2026-04-24 05:29 | 62.28018 | 14.34392 | 36054 ft | 467 kts | 281° |
| 2026-04-24 05:30 | 62.29104 | 14.20635 | 36060 ft | 467 kts | 281° |
| 2026-04-24 05:30 | 62.30176 | 14.06869 | 36070 ft | 467 kts | 280° |
| 2026-04-24 05:31 | 62.31235 | 13.93088 | 36086 ft | 467 kts | 280° |
| 2026-04-24 05:31 | 62.32281 | 13.79288 | 36088 ft | 467 kts | 280° |
| 2026-04-24 05:32 | 62.33304 | 13.65595 | 36093 ft | 467 kts | 280° |
| 2026-04-24 05:32 | 62.34323 | 13.51787 | 36092 ft | 467 kts | 280° |
| 2026-04-24 05:33 | 62.35327 | 13.37982 | 36097 ft | 467 kts | 279° |
| 2026-04-24 05:33 | 62.36317 | 13.24165 | 36117 ft | 467 kts | 279° |
| 2026-04-24 05:34 | 62.37775 | 13.03440 | 36106 ft | 466 kts | 279° |
| 2026-04-24 05:34 | 62.38730 | 12.89607 | 36107 ft | 466 kts | 279° |
| 2026-04-24 05:35 | 62.39671 | 12.75779 | 36121 ft | 466 kts | 279° |
| 2026-04-24 05:35 | 62.40595 | 12.61973 | 36131 ft | 465 kts | 279° |
| 2026-04-24 05:36 | 62.41507 | 12.48147 | 36132 ft | 465 kts | 278° |
| 2026-04-24 05:36 | 62.42403 | 12.34356 | 36119 ft | 465 kts | 278° |
| 2026-04-24 05:37 | 62.43281 | 12.20632 | 36126 ft | 464 kts | 278° |
| 2026-04-24 05:37 | 62.44299 | 12.06875 | 36126 ft | 464 kts | 281° |
| 2026-04-24 05:38 | 62.45600 | 11.93218 | 36126 ft | 465 kts | 282° |
| 2026-04-24 05:38 | 62.46895 | 11.79539 | 36124 ft | 465 kts | 281° |
| 2026-04-24 05:39 | 62.48128 | 11.65799 | 36115 ft | 466 kts | 281° |
| 2026-04-24 05:39 | 62.49324 | 11.52027 | 36110 ft | 466 kts | 281° |
| 2026-04-24 05:40 | 62.50505 | 11.38224 | 36103 ft | 467 kts | 281° |
| 2026-04-24 05:40 | 62.51677 | 11.24401 | 36092 ft | 467 kts | 281° |
| 2026-04-24 05:41 | 62.52834 | 11.10578 | 36104 ft | 467 kts | 280° |
| 2026-04-24 05:41 | 62.53974 | 10.96793 | 36120 ft | 468 kts | 280° |
| 2026-04-24 05:42 | 62.55107 | 10.82913 | 36128 ft | 468 kts | 280° |
| 2026-04-24 05:42 | 62.56227 | 10.69003 | 36136 ft | 468 kts | 280° |
| 2026-04-24 05:43 | 62.57335 | 10.55084 | 36147 ft | 469 kts | 280° |
| 2026-04-24 05:43 | 62.58430 | 10.41135 | 36144 ft | 470 kts | 280° |
| 2026-04-24 05:44 | 62.59513 | 10.27138 | 36149 ft | 470 kts | 279° |
| 2026-04-24 05:44 | 62.60584 | 10.13121 | 36140 ft | 470 kts | 279° |
| 2026-04-24 05:45 | 62.61641 | 9.99104 | 36127 ft | 471 kts | 279° |
| 2026-04-24 05:45 | 62.62686 | 9.85038 | 36133 ft | 471 kts | 279° |
| 2026-04-24 05:46 | 62.63715 | 9.70970 | 36149 ft | 472 kts | 279° |
| 2026-04-24 05:46 | 62.64726 | 9.56965 | 36135 ft | 471 kts | 279° |
| 2026-04-24 05:47 | 62.65728 | 9.42882 | 36157 ft | 471 kts | 279° |
| 2026-04-24 05:47 | 62.66716 | 9.28789 | 36156 ft | 471 kts | 279° |
| 2026-04-24 05:48 | 62.67689 | 9.14682 | 36159 ft | 471 kts | 278° |
| 2026-04-24 05:48 | 62.68646 | 9.00607 | 36177 ft | 470 kts | 278° |
| 2026-04-24 05:49 | 62.69592 | 8.86483 | 36185 ft | 471 kts | 278° |
| 2026-04-24 05:49 | 62.70521 | 8.72380 | 36184 ft | 471 kts | 278° |
| 2026-04-24 05:50 | 62.71438 | 8.58226 | 36183 ft | 471 kts | 278° |
| 2026-04-24 05:50 | 62.72342 | 8.44067 | 36196 ft | 471 kts | 278° |
| 2026-04-24 05:51 | 62.73230 | 8.29908 | 36190 ft | 471 kts | 278° |
| 2026-04-24 05:51 | 62.74103 | 8.15747 | 36194 ft | 472 kts | 278° |
| 2026-04-24 05:52 | 62.74959 | 8.01638 | 36206 ft | 473 kts | 278° |
| 2026-04-24 05:52 | 62.75807 | 7.87412 | 36224 ft | 473 kts | 278° |
| 2026-04-24 05:53 | 62.76642 | 7.73164 | 36233 ft | 474 kts | 278° |
| 2026-04-24 05:53 | 62.77463 | 7.58877 | 36238 ft | 474 kts | 277° |
| 2026-04-24 05:54 | 62.78272 | 7.44572 | 36238 ft | 475 kts | 277° |
| 2026-04-24 05:54 | 62.79067 | 7.30227 | 36242 ft | 475 kts | 277° |
| 2026-04-24 05:55 | 62.79846 | 7.15890 | 36243 ft | 475 kts | 277° |
| 2026-04-24 05:55 | 62.80611 | 7.01543 | 36233 ft | 475 kts | 277° |
| 2026-04-24 05:56 | 62.81361 | 6.87217 | 36244 ft | 475 kts | 277° |
| 2026-04-24 05:56 | 62.82097 | 6.72857 | 36235 ft | 474 kts | 277° |
| 2026-04-24 05:57 | 62.82811 | 6.58619 | 36241 ft | 474 kts | 277° |
| 2026-04-24 05:57 | 62.83517 | 6.44254 | 36255 ft | 474 kts | 277° |
| 2026-04-24 05:58 | 62.84210 | 6.29886 | 36243 ft | 475 kts | 277° |
| 2026-04-24 05:58 | 62.84888 | 6.15509 | 36253 ft | 476 kts | 277° |
| 2026-04-24 05:59 | 62.85552 | 6.01069 | 36245 ft | 476 kts | 277° |
| 2026-04-24 05:59 | 62.86201 | 5.86640 | 36253 ft | 476 kts | 277° |
| 2026-04-24 06:00 | 62.86836 | 5.72189 | 36247 ft | 477 kts | 277° |
| 2026-04-24 06:00 | 62.87454 | 5.57797 | 36245 ft | 477 kts | 277° |
| 2026-04-24 06:01 | 62.88061 | 5.43317 | 36246 ft | 477 kts | 277° |
| 2026-04-24 06:01 | 62.88651 | 5.28845 | 36256 ft | 477 kts | 276° |
| 2026-04-24 06:02 | 62.89228 | 5.14367 | 36261 ft | 476 kts | 276° |
| 2026-04-24 06:02 | 62.89789 | 4.99894 | 36257 ft | 476 kts | 276° |
| 2026-04-24 06:03 | 62.90335 | 4.85409 | 36260 ft | 476 kts | 276° |
| 2026-04-24 06:03 | 62.90867 | 4.70929 | 36256 ft | 476 kts | 276° |
| 2026-04-24 06:04 | 62.91382 | 4.56458 | 36258 ft | 475 kts | 276° |
| 2026-04-24 06:04 | 62.91879 | 4.42111 | 36263 ft | 474 kts | 276° |
| 2026-04-24 06:05 | 62.92366 | 4.27595 | 36268 ft | 474 kts | 276° |
| 2026-04-24 06:05 | 62.92832 | 4.13267 | 36264 ft | 473 kts | 276° |
| 2026-04-24 06:06 | 62.93287 | 3.98864 | 36267 ft | 473 kts | 276° |
| 2026-04-24 06:06 | 62.93725 | 3.84478 | 36270 ft | 472 kts | 276° |
| 2026-04-24 06:07 | 62.94149 | 3.70099 | 36269 ft | 471 kts | 276° |
| 2026-04-24 06:07 | 62.94558 | 3.55737 | 36269 ft | 470 kts | 275° |
| 2026-04-24 06:08 | 62.94951 | 3.41400 | 36274 ft | 470 kts | 275° |
| 2026-04-24 06:08 | 62.95330 | 3.27080 | 36274 ft | 469 kts | 275° |
| 2026-04-24 06:09 | 62.95692 | 3.12792 | 36275 ft | 468 kts | 275° |
| 2026-04-24 06:09 | 62.96040 | 2.98502 | 36278 ft | 468 kts | 275° |
| 2026-04-24 06:10 | 62.96374 | 2.84230 | 36285 ft | 467 kts | 275° |
| 2026-04-24 06:11 | 62.96844 | 2.62933 | 36283 ft | 467 kts | 275° |
| 2026-04-24 06:11 | 62.97141 | 2.48707 | 36284 ft | 466 kts | 274° |
| 2026-04-24 06:12 | 62.97423 | 2.34465 | 36286 ft | 465 kts | 274° |
| 2026-04-24 06:12 | 62.97691 | 2.20257 | 36289 ft | 465 kts | 274° |
| 2026-04-24 06:13 | 62.97944 | 2.06073 | 36292 ft | 464 kts | 274° |
| 2026-04-24 06:13 | 62.98182 | 1.91859 | 36294 ft | 464 kts | 274° |
| 2026-04-24 06:14 | 62.98406 | 1.77714 | 36286 ft | 463 kts | 274° |
| 2026-04-24 06:14 | 62.98617 | 1.63469 | 36515 ft | 466 kts | 274° |
| 2026-04-24 06:14 | 62.98717 | 1.56346 | 36748 ft | 465 kts | 273° |
| 2026-04-24 06:15 | 62.98814 | 1.49254 | 36944 ft | 466 kts | 273° |
| 2026-04-24 06:15 | 62.98876 | 1.44497 | 37061 ft | 466 kts | 273° |
| 2026-04-24 06:15 | 62.98967 | 1.37369 | 37262 ft | 466 kts | 273° |
| 2026-04-24 06:15 | 62.99053 | 1.30255 | 37457 ft | 466 kts | 273° |
| 2026-04-24 06:16 | 62.99137 | 1.23127 | 37636 ft | 466 kts | 273° |
| 2026-04-24 06:16 | 62.99216 | 1.16003 | 37823 ft | 466 kts | 272° |
| 2026-04-24 06:16 | 62.99293 | 1.08869 | 37999 ft | 466 kts | 272° |
| 2026-04-24 06:16 | 62.99365 | 1.01732 | 38172 ft | 466 kts | 272° |
| 2026-04-24 06:17 | 62.99434 | 0.94614 | 38296 ft | 467 kts | 272° |
| 2026-04-24 06:17 | 62.99562 | 0.80315 | 38309 ft | 467 kts | 272° |
| 2026-04-24 06:18 | 62.99675 | 0.66022 | 38310 ft | 469 kts | 272° |
| 2026-04-24 06:18 | 62.99775 | 0.51664 | 38313 ft | 475 kts | 272° |
| 2026-04-24 06:19 | 62.99861 | 0.37085 | 38311 ft | 479 kts | 272° |
| 2026-04-24 06:19 | 62.99932 | 0.22407 | 38315 ft | 481 kts | 272° |
| 2026-04-24 06:20 | 62.99988 | 0.07680 | 38316 ft | 481 kts | 271° |
| 2026-04-24 06:20 | 62.99564 | -0.07021 | 38318 ft | 482 kts | 265° |
| 2026-04-24 06:21 | 62.98687 | -0.21666 | 38321 ft | 482 kts | 263° |
| 2026-04-24 06:21 | 62.97737 | -0.36258 | 38323 ft | 482 kts | 263° |
| 2026-04-24 06:22 | 62.96774 | -0.50835 | 38326 ft | 482 kts | 263° |
| 2026-04-24 06:22 | 62.95808 | -0.65408 | 38326 ft | 481 kts | 263° |
| 2026-04-24 06:23 | 62.94838 | -0.79859 | 38330 ft | 481 kts | 263° |
| 2026-04-24 06:23 | 62.93849 | -0.94367 | 38333 ft | 480 kts | 263° |
| 2026-04-24 06:24 | 62.92845 | -1.08867 | 38330 ft | 480 kts | 263° |
| 2026-04-24 06:24 | 62.91827 | -1.23333 | 38336 ft | 479 kts | 263° |
| 2026-04-24 06:25 | 62.90794 | -1.37794 | 38339 ft | 478 kts | 263° |
| 2026-04-24 06:25 | 62.89751 | -1.52189 | 38341 ft | 478 kts | 263° |
| 2026-04-24 06:26 | 62.88692 | -1.66570 | 38341 ft | 477 kts | 262° |
| 2026-04-24 06:26 | 62.87630 | -1.80799 | 38341 ft | 476 kts | 262° |
| 2026-04-24 06:27 | 62.86548 | -1.95101 | 38347 ft | 475 kts | 262° |
| 2026-04-24 06:27 | 62.85453 | -2.09366 | 38346 ft | 475 kts | 262° |
| 2026-04-24 06:28 | 62.84344 | -2.23610 | 38346 ft | 474 kts | 262° |
| 2026-04-24 06:28 | 62.83224 | -2.37797 | 38352 ft | 473 kts | 261° |
| 2026-04-24 06:29 | 62.82091 | -2.51969 | 38350 ft | 472 kts | 261° |
| 2026-04-24 06:29 | 62.80944 | -2.66121 | 38351 ft | 472 kts | 261° |
| 2026-04-24 06:30 | 62.79784 | -2.80246 | 38351 ft | 471 kts | 261° |
| 2026-04-24 06:30 | 62.78612 | -2.94335 | 38355 ft | 471 kts | 261° |
| 2026-04-24 06:31 | 62.77428 | -3.08400 | 38355 ft | 471 kts | 261° |
| 2026-04-24 06:31 | 62.76230 | -3.22444 | 38355 ft | 470 kts | 260° |
| 2026-04-24 06:32 | 62.75018 | -3.36466 | 38359 ft | 470 kts | 260° |
| 2026-04-24 06:32 | 62.73794 | -3.50464 | 38353 ft | 470 kts | 260° |
| 2026-04-24 06:33 | 62.72563 | -3.64380 | 38353 ft | 470 kts | 260° |
| 2026-04-24 06:33 | 62.71309 | -3.78378 | 38358 ft | 471 kts | 259° |
| 2026-04-24 06:34 | 62.70041 | -3.92368 | 38362 ft | 471 kts | 259° |
| 2026-04-24 06:34 | 62.68758 | -4.06360 | 38366 ft | 471 kts | 259° |
| 2026-04-24 06:35 | 62.67461 | -4.20337 | 38371 ft | 471 kts | 259° |
| 2026-04-24 06:35 | 62.66149 | -4.34315 | 38363 ft | 472 kts | 259° |
| 2026-04-24 06:36 | 62.64821 | -4.48305 | 38365 ft | 472 kts | 259° |
| 2026-04-24 06:36 | 62.63487 | -4.62192 | 38371 ft | 472 kts | 258° |
| 2026-04-24 06:37 | 62.62132 | -4.76152 | 38373 ft | 472 kts | 258° |
| 2026-04-24 06:37 | 62.60760 | -4.90120 | 38367 ft | 472 kts | 258° |
| 2026-04-24 06:38 | 62.59377 | -5.04058 | 38364 ft | 473 kts | 258° |
| 2026-04-24 06:38 | 62.57978 | -5.17991 | 38372 ft | 472 kts | 258° |
| 2026-04-24 06:39 | 62.56567 | -5.31905 | 38366 ft | 472 kts | 258° |
| 2026-04-24 06:39 | 62.55142 | -5.45796 | 38371 ft | 472 kts | 258° |
| 2026-04-24 06:40 | 62.53704 | -5.59673 | 38372 ft | 472 kts | 257° |
| 2026-04-24 06:40 | 62.52254 | -5.73524 | 38374 ft | 471 kts | 257° |
| 2026-04-24 06:41 | 62.50792 | -5.87338 | 38378 ft | 471 kts | 257° |
| 2026-04-24 06:41 | 62.49316 | -6.01149 | 38377 ft | 471 kts | 257° |
| 2026-04-24 06:42 | 62.47826 | -6.14942 | 38377 ft | 471 kts | 257° |
| 2026-04-24 06:42 | 62.46333 | -6.28629 | 38375 ft | 471 kts | 257° |
| 2026-04-24 06:43 | 62.44816 | -6.42390 | 38383 ft | 470 kts | 256° |
| 2026-04-24 06:43 | 62.43288 | -6.56124 | 38376 ft | 470 kts | 256° |
| 2026-04-24 06:44 | 62.41746 | -6.69846 | 38374 ft | 470 kts | 256° |
| 2026-04-24 06:44 | 62.40190 | -6.83560 | 38372 ft | 471 kts | 256° |
| 2026-04-24 06:45 | 62.38621 | -6.97251 | 38380 ft | 471 kts | 256° |
| 2026-04-24 06:45 | 62.37038 | -7.10937 | 38385 ft | 471 kts | 256° |
| 2026-04-24 06:46 | 62.35440 | -7.24620 | 38387 ft | 471 kts | 256° |
| 2026-04-24 06:46 | 62.33831 | -7.38269 | 38383 ft | 471 kts | 255° |
| 2026-04-24 06:47 | 62.32204 | -7.51940 | 38379 ft | 471 kts | 255° |
| 2026-04-24 06:47 | 62.30566 | -7.65578 | 38386 ft | 471 kts | 255° |
| 2026-04-24 06:48 | 62.28925 | -7.79114 | 38381 ft | 471 kts | 255° |
| 2026-04-24 06:48 | 62.27259 | -7.92732 | 38390 ft | 471 kts | 255° |
| 2026-04-24 06:49 | 62.25579 | -8.06338 | 38390 ft | 471 kts | 255° |
| 2026-04-24 06:49 | 62.23885 | -8.19944 | 38382 ft | 471 kts | 255° |
| 2026-04-24 06:50 | 62.22178 | -8.33519 | 38390 ft | 472 kts | 255° |
| 2026-04-24 06:50 | 62.20456 | -8.47100 | 38389 ft | 472 kts | 254° |
| 2026-04-24 06:51 | 62.18722 | -8.60656 | 38393 ft | 472 kts | 254° |
| 2026-04-24 06:51 | 62.16984 | -8.74129 | 38392 ft | 472 kts | 254° |
| 2026-04-24 06:52 | 62.15223 | -8.87655 | 38391 ft | 472 kts | 254° |
| 2026-04-24 06:52 | 62.13445 | -9.01196 | 38378 ft | 472 kts | 254° |
| 2026-04-24 06:53 | 62.11658 | -9.14693 | 38388 ft | 473 kts | 254° |
| 2026-04-24 06:53 | 62.09853 | -9.28206 | 38386 ft | 473 kts | 253° |
| 2026-04-24 06:54 | 62.08035 | -9.41706 | 38391 ft | 473 kts | 253° |
| 2026-04-24 06:54 | 62.06203 | -9.55188 | 38387 ft | 473 kts | 253° |
| 2026-04-24 06:55 | 62.04354 | -9.68692 | 38387 ft | 474 kts | 253° |
| 2026-04-24 06:55 | 62.02496 | -9.82141 | 38390 ft | 474 kts | 253° |
| 2026-04-24 06:56 | 62.00631 | -9.95538 | 38381 ft | 474 kts | 253° |
| 2026-04-24 06:56 | 61.98846 | -10.09059 | 38380 ft | 475 kts | 256° |
| 2026-04-24 06:57 | 61.97414 | -10.22778 | 38388 ft | 475 kts | 257° |
| 2026-04-24 06:57 | 61.96001 | -10.36509 | 38387 ft | 476 kts | 257° |
| 2026-04-24 06:58 | 61.94516 | -10.50213 | 38375 ft | 476 kts | 256° |
| 2026-04-24 06:58 | 61.92985 | -10.63885 | 38382 ft | 476 kts | 256° |
| 2026-04-24 06:59 | 61.91433 | -10.77567 | 38383 ft | 477 kts | 256° |
| 2026-04-24 06:59 | 61.89867 | -10.91247 | 38384 ft | 477 kts | 256° |
| 2026-04-24 07:00 | 61.88302 | -11.04818 | 38388 ft | 477 kts | 256° |
| 2026-04-24 07:00 | 61.86710 | -11.18489 | 38378 ft | 478 kts | 256° |
| 2026-04-24 07:01 | 61.85104 | -11.32147 | 38376 ft | 478 kts | 256° |
| 2026-04-24 07:01 | 61.83484 | -11.45793 | 38376 ft | 478 kts | 256° |
| 2026-04-24 07:02 | 61.81851 | -11.59423 | 38375 ft | 478 kts | 255° |
| 2026-04-24 07:02 | 61.80203 | -11.73050 | 38375 ft | 478 kts | 255° |
| 2026-04-24 07:03 | 61.78540 | -11.86678 | 38376 ft | 479 kts | 255° |
| 2026-04-24 07:03 | 61.76863 | -12.00299 | 38379 ft | 479 kts | 255° |
| 2026-04-24 07:04 | 61.75171 | -12.13908 | 38378 ft | 479 kts | 255° |
| 2026-04-24 07:04 | 61.73474 | -12.27435 | 38370 ft | 479 kts | 255° |
| 2026-04-24 07:05 | 61.71755 | -12.41021 | 38376 ft | 480 kts | 255° |
| 2026-04-24 07:05 | 61.70022 | -12.54595 | 38375 ft | 480 kts | 255° |
| 2026-04-24 07:06 | 61.68568 | -12.65888 | 38364 ft | 480 kts | 255° |
| 2026-04-24 07:06 | 61.66809 | -12.79446 | 38378 ft | 480 kts | 255° |
| 2026-04-24 07:07 | 61.65036 | -12.92994 | 38381 ft | 480 kts | 255° |
| 2026-04-24 07:07 | 61.62348 | -13.13307 | 38368 ft | 480 kts | 254° |
| 2026-04-24 07:08 | 61.60539 | -13.26831 | 38368 ft | 481 kts | 254° |
| 2026-04-24 07:08 | 61.58715 | -13.40355 | 38375 ft | 481 kts | 254° |
| 2026-04-24 07:09 | 61.56879 | -13.53850 | 38369 ft | 481 kts | 254° |
| 2026-04-24 07:09 | 61.55029 | -13.67334 | 38371 ft | 481 kts | 254° |
| 2026-04-24 07:10 | 61.53175 | -13.80734 | 38366 ft | 482 kts | 254° |
| 2026-04-24 07:10 | 61.51295 | -13.94212 | 38374 ft | 482 kts | 253° |
| 2026-04-24 07:11 | 61.49403 | -14.07667 | 38372 ft | 482 kts | 253° |
| 2026-04-24 07:11 | 61.47495 | -14.21123 | 38372 ft | 482 kts | 253° |
| 2026-04-24 07:12 | 61.45574 | -14.34558 | 38364 ft | 482 kts | 253° |
| 2026-04-24 07:12 | 61.43638 | -14.47995 | 38361 ft | 483 kts | 253° |
| 2026-04-24 07:13 | 61.41689 | -14.61406 | 38359 ft | 483 kts | 253° |
| 2026-04-24 07:13 | 61.39726 | -14.74808 | 38354 ft | 483 kts | 253° |
| 2026-04-24 07:14 | 61.37748 | -14.88207 | 38361 ft | 483 kts | 253° |
| 2026-04-24 07:14 | 61.35757 | -15.01594 | 38361 ft | 483 kts | 253° |
| 2026-04-24 07:15 | 61.33766 | -15.14866 | 38358 ft | 484 kts | 252° |
| 2026-04-24 07:15 | 61.31746 | -15.28237 | 38354 ft | 484 kts | 252° |
| 2026-04-24 07:16 | 61.29711 | -15.41596 | 38358 ft | 484 kts | 252° |
| 2026-04-24 07:16 | 61.27663 | -15.54939 | 38363 ft | 485 kts | 252° |
| 2026-04-24 07:17 | 61.25598 | -15.68286 | 38359 ft | 485 kts | 252° |
| 2026-04-24 07:17 | 61.23519 | -15.81625 | 38361 ft | 485 kts | 252° |
| 2026-04-24 07:18 | 61.21428 | -15.94939 | 38362 ft | 485 kts | 252° |
| 2026-04-24 07:18 | 61.19325 | -16.08233 | 38362 ft | 486 kts | 252° |
| 2026-04-24 07:19 | 61.17206 | -16.21523 | 38352 ft | 486 kts | 252° |
| 2026-04-24 07:19 | 61.15070 | -16.34818 | 38356 ft | 486 kts | 251° |
| 2026-04-24 07:20 | 61.12924 | -16.48080 | 38352 ft | 486 kts | 251° |
| 2026-04-24 07:20 | 61.10760 | -16.61355 | 38355 ft | 487 kts | 251° |
| 2026-04-24 07:21 | 61.08586 | -16.74593 | 38352 ft | 487 kts | 251° |
| 2026-04-24 07:21 | 61.06409 | -16.87754 | 38348 ft | 487 kts | 251° |
| 2026-04-24 07:22 | 61.04206 | -17.00975 | 38351 ft | 487 kts | 251° |
| 2026-04-24 07:22 | 61.01983 | -17.14219 | 38351 ft | 488 kts | 251° |
| 2026-04-24 07:23 | 60.99749 | -17.27432 | 38342 ft | 488 kts | 251° |
| 2026-04-24 07:23 | 60.97502 | -17.40630 | 38351 ft | 488 kts | 250° |
| 2026-04-24 07:24 | 60.95241 | -17.53810 | 38349 ft | 489 kts | 250° |
| 2026-04-24 07:24 | 60.92964 | -17.66995 | 38351 ft | 489 kts | 250° |
| 2026-04-24 07:25 | 60.90685 | -17.80095 | 38348 ft | 489 kts | 250° |
| 2026-04-24 07:25 | 60.88381 | -17.93249 | 38346 ft | 489 kts | 250° |
| 2026-04-24 07:26 | 60.86064 | -18.06384 | 38349 ft | 490 kts | 250° |
| 2026-04-24 07:26 | 60.83731 | -18.19521 | 38336 ft | 490 kts | 250° |
| 2026-04-24 07:27 | 60.81384 | -18.32643 | 38349 ft | 490 kts | 250° |
| 2026-04-24 07:27 | 60.79022 | -18.45757 | 38347 ft | 491 kts | 249° |
| 2026-04-24 07:28 | 60.76644 | -18.58869 | 38339 ft | 491 kts | 249° |
| 2026-04-24 07:28 | 60.74254 | -18.71960 | 38335 ft | 491 kts | 249° |
| 2026-04-24 07:29 | 60.71865 | -18.84956 | 38341 ft | 492 kts | 249° |
| 2026-04-24 07:29 | 60.69450 | -18.98003 | 38334 ft | 492 kts | 249° |
| 2026-04-24 07:30 | 60.67019 | -19.11052 | 38338 ft | 492 kts | 249° |
| 2026-04-24 07:30 | 60.64571 | -19.24098 | 38336 ft | 492 kts | 249° |
| 2026-04-24 07:31 | 60.62113 | -19.37114 | 38332 ft | 492 kts | 248° |
| 2026-04-24 07:31 | 60.59656 | -19.50039 | 38331 ft | 492 kts | 248° |
| 2026-04-24 07:32 | 60.57172 | -19.63023 | 38326 ft | 492 kts | 248° |
| 2026-04-24 07:32 | 60.54677 | -19.75976 | 38329 ft | 492 kts | 248° |
| 2026-04-24 07:33 | 60.52167 | -19.88920 | 38323 ft | 492 kts | 248° |
| 2026-04-24 07:33 | 60.50015 | -20.02097 | 38330 ft | 493 kts | 258° |
| 2026-04-24 07:34 | 60.48985 | -20.15863 | 38314 ft | 494 kts | 262° |
| 2026-04-24 07:34 | 60.48146 | -20.29701 | 38328 ft | 495 kts | 262° |
| 2026-04-24 07:35 | 60.47311 | -20.43544 | 38319 ft | 495 kts | 262° |
| 2026-04-24 07:35 | 60.46439 | -20.57400 | 38311 ft | 495 kts | 262° |
| 2026-04-24 07:36 | 60.45541 | -20.71242 | 38311 ft | 496 kts | 261° |
| 2026-04-24 07:36 | 60.44624 | -20.85107 | 38327 ft | 496 kts | 261° |
| 2026-04-24 07:37 | 60.43698 | -20.98872 | 38305 ft | 496 kts | 261° |
| 2026-04-24 07:37 | 60.42751 | -21.12720 | 38305 ft | 497 kts | 261° |
| 2026-04-24 07:38 | 60.41790 | -21.26604 | 38307 ft | 498 kts | 261° |
| 2026-04-24 07:38 | 60.40816 | -21.40468 | 38302 ft | 498 kts | 261° |
| 2026-04-24 07:39 | 60.39824 | -21.54358 | 38321 ft | 498 kts | 261° |
| 2026-04-24 07:39 | 60.38818 | -21.68216 | 38322 ft | 498 kts | 260° |
| 2026-04-24 07:40 | 60.37803 | -21.82012 | 38300 ft | 499 kts | 260° |
| 2026-04-24 07:40 | 60.36766 | -21.95888 | 38316 ft | 500 kts | 260° |
| 2026-04-24 07:41 | 60.35714 | -22.09772 | 38302 ft | 500 kts | 260° |
| 2026-04-24 07:41 | 60.34645 | -22.23676 | 38302 ft | 501 kts | 260° |
| 2026-04-24 07:42 | 60.33560 | -22.37589 | 38305 ft | 501 kts | 259° |
| 2026-04-24 07:42 | 60.32463 | -22.51483 | 38304 ft | 502 kts | 259° |
| 2026-04-24 07:43 | 60.31348 | -22.65393 | 38301 ft | 503 kts | 259° |
| 2026-04-24 07:43 | 60.30215 | -22.79316 | 38304 ft | 503 kts | 259° |
| 2026-04-24 07:44 | 60.29068 | -22.93245 | 38303 ft | 504 kts | 259° |
| 2026-04-24 07:44 | 60.27905 | -23.07176 | 38299 ft | 504 kts | 259° |
| 2026-04-24 07:45 | 60.26725 | -23.21121 | 38299 ft | 505 kts | 259° |
| 2026-04-24 07:45 | 60.25538 | -23.34977 | 38301 ft | 505 kts | 259° |
| 2026-04-24 07:46 | 60.24330 | -23.48911 | 38295 ft | 506 kts | 258° |
| 2026-04-24 07:46 | 60.23104 | -23.62853 | 38296 ft | 506 kts | 258° |
| 2026-04-24 07:47 | 60.21861 | -23.76807 | 38294 ft | 507 kts | 258° |
| 2026-04-24 07:47 | 60.20601 | -23.90766 | 38289 ft | 507 kts | 258° |
| 2026-04-24 07:48 | 60.19325 | -24.04749 | 38290 ft | 508 kts | 258° |
| 2026-04-24 07:48 | 60.18035 | -24.18715 | 38288 ft | 509 kts | 258° |
| 2026-04-24 07:49 | 60.16726 | -24.32703 | 38289 ft | 509 kts | 258° |
| 2026-04-24 07:49 | 60.15403 | -24.46677 | 38290 ft | 510 kts | 257° |
| 2026-04-24 07:50 | 60.14074 | -24.60565 | 38291 ft | 510 kts | 257° |
| 2026-04-24 07:50 | 60.12717 | -24.74562 | 38286 ft | 511 kts | 257° |
| 2026-04-24 07:51 | 60.11344 | -24.88569 | 38283 ft | 511 kts | 257° |
| 2026-04-24 07:51 | 60.09960 | -25.02542 | 38281 ft | 511 kts | 257° |
| 2026-04-24 07:52 | 60.08558 | -25.16515 | 38275 ft | 512 kts | 257° |
| 2026-04-24 07:52 | 60.07139 | -25.30498 | 38276 ft | 512 kts | 257° |
| 2026-04-24 07:53 | 60.05704 | -25.44482 | 38274 ft | 513 kts | 257° |
| 2026-04-24 07:53 | 60.04255 | -25.58448 | 38275 ft | 513 kts | 257° |
| 2026-04-24 07:54 | 60.02789 | -25.72433 | 38270 ft | 513 kts | 256° |
| 2026-04-24 07:54 | 60.01317 | -25.86310 | 38265 ft | 514 kts | 256° |
| 2026-04-24 07:55 | 59.99816 | -26.00307 | 38264 ft | 514 kts | 256° |
| 2026-04-24 07:55 | 59.98303 | -26.14277 | 38261 ft | 515 kts | 256° |
| 2026-04-24 07:56 | 59.97034 | -26.25885 | 38259 ft | 515 kts | 256° |
| 2026-04-24 07:56 | 59.95489 | -26.39861 | 38262 ft | 515 kts | 256° |
| 2026-04-24 07:57 | 59.93929 | -26.53836 | 38262 ft | 516 kts | 256° |
| 2026-04-24 07:57 | 59.92356 | -26.67784 | 38256 ft | 516 kts | 256° |
| 2026-04-24 07:58 | 59.90767 | -26.81732 | 38254 ft | 516 kts | 256° |
| 2026-04-24 07:58 | 59.89171 | -26.95591 | 38252 ft | 517 kts | 255° |
| 2026-04-24 07:59 | 59.87548 | -27.09551 | 38252 ft | 517 kts | 255° |
| 2026-04-24 07:59 | 59.85911 | -27.23491 | 38246 ft | 517 kts | 255° |
| 2026-04-24 08:00 | 59.84258 | -27.37432 | 38245 ft | 518 kts | 255° |
| 2026-04-24 08:00 | 59.82590 | -27.51350 | 38244 ft | 518 kts | 255° |
| 2026-04-24 08:01 | 59.80904 | -27.65283 | 38242 ft | 518 kts | 255° |
| 2026-04-24 08:01 | 59.79216 | -27.79104 | 38240 ft | 519 kts | 255° |
| 2026-04-24 08:02 | 59.77500 | -27.93027 | 38238 ft | 519 kts | 255° |
| 2026-04-24 08:02 | 59.75767 | -28.06942 | 38238 ft | 520 kts | 254° |
| 2026-04-24 08:03 | 59.74017 | -28.20859 | 38232 ft | 520 kts | 254° |
| 2026-04-24 08:03 | 59.72253 | -28.34763 | 38232 ft | 520 kts | 254° |
| 2026-04-24 08:04 | 59.70474 | -28.48656 | 38229 ft | 520 kts | 254° |
| 2026-04-24 08:04 | 59.68679 | -28.62544 | 38225 ft | 520 kts | 254° |
| 2026-04-24 08:05 | 59.66869 | -28.76417 | 38218 ft | 521 kts | 254° |
| 2026-04-24 08:05 | 59.65055 | -28.90194 | 38219 ft | 521 kts | 253° |
| 2026-04-24 08:06 | 59.63200 | -29.04153 | 38219 ft | 521 kts | 253° |
| 2026-04-24 08:06 | 59.61356 | -29.17906 | 38214 ft | 522 kts | 253° |
| 2026-04-24 08:07 | 59.59485 | -29.31739 | 38215 ft | 522 kts | 253° |
| 2026-04-24 08:07 | 59.57596 | -29.45579 | 38209 ft | 522 kts | 253° |
| 2026-04-24 08:08 | 59.55691 | -29.59420 | 38210 ft | 523 kts | 253° |
| 2026-04-24 08:09 | 59.52804 | -29.80161 | 38205 ft | 523 kts | 253° |
| 2026-04-24 08:09 | 59.50859 | -29.93981 | 38204 ft | 524 kts | 253° |
| 2026-04-24 08:10 | 59.48537 | -30.07524 | 38202 ft | 522 kts | 248° |
| 2026-04-24 08:10 | 59.45929 | -30.20879 | 38199 ft | 523 kts | 246° |
| 2026-04-24 08:11 | 59.43269 | -30.34176 | 38197 ft | 523 kts | 246° |
| 2026-04-24 08:11 | 59.40602 | -30.47457 | 38194 ft | 523 kts | 246° |
| 2026-04-24 08:12 | 59.37924 | -30.60751 | 38186 ft | 524 kts | 246° |
| 2026-04-24 08:12 | 59.35235 | -30.74031 | 38170 ft | 524 kts | 246° |
| 2026-04-24 08:13 | 59.32548 | -30.87208 | 38188 ft | 524 kts | 246° |
| 2026-04-24 08:13 | 59.29828 | -31.00463 | 38191 ft | 525 kts | 246° |
| 2026-04-24 08:14 | 59.27095 | -31.13697 | 38179 ft | 525 kts | 246° |
| 2026-04-24 08:14 | 59.24348 | -31.26907 | 38176 ft | 525 kts | 246° |
| 2026-04-24 08:15 | 59.21582 | -31.40123 | 38170 ft | 525 kts | 245° |
| 2026-04-24 08:15 | 59.18806 | -31.53307 | 38170 ft | 526 kts | 245° |
| 2026-04-24 08:16 | 59.16008 | -31.66502 | 38170 ft | 526 kts | 245° |
| 2026-04-24 08:16 | 59.13200 | -31.79665 | 38169 ft | 526 kts | 245° |
| 2026-04-24 08:17 | 59.10376 | -31.92821 | 38166 ft | 527 kts | 245° |
| 2026-04-24 08:17 | 59.07537 | -32.05957 | 38160 ft | 527 kts | 245° |
| 2026-04-24 08:18 | 59.04679 | -32.19101 | 38162 ft | 527 kts | 245° |
| 2026-04-24 08:18 | 59.01810 | -32.32214 | 38153 ft | 528 kts | 245° |
| 2026-04-24 08:19 | 58.98927 | -32.45304 | 38153 ft | 528 kts | 244° |
| 2026-04-24 08:19 | 58.96026 | -32.58399 | 38147 ft | 528 kts | 244° |
| 2026-04-24 08:20 | 58.93113 | -32.71463 | 38144 ft | 529 kts | 244° |
| 2026-04-24 08:20 | 58.90182 | -32.84527 | 38146 ft | 529 kts | 244° |
| 2026-04-24 08:21 | 58.87239 | -32.97565 | 38141 ft | 529 kts | 244° |
| 2026-04-24 08:21 | 58.84281 | -33.10591 | 38136 ft | 529 kts | 244° |
| 2026-04-24 08:22 | 58.81306 | -33.23605 | 38133 ft | 530 kts | 244° |
| 2026-04-24 08:22 | 58.78339 | -33.36512 | 38136 ft | 530 kts | 244° |
| 2026-04-24 08:23 | 58.75337 | -33.49490 | 38129 ft | 530 kts | 243° |
| 2026-04-24 08:23 | 58.72321 | -33.62450 | 38129 ft | 530 kts | 243° |
| 2026-04-24 08:24 | 58.69289 | -33.75401 | 38124 ft | 531 kts | 243° |
| 2026-04-24 08:24 | 58.66244 | -33.88329 | 38124 ft | 531 kts | 243° |
| 2026-04-24 08:25 | 58.63186 | -34.01233 | 38116 ft | 531 kts | 243° |
| 2026-04-24 08:25 | 58.60113 | -34.14125 | 38119 ft | 531 kts | 243° |
| 2026-04-24 08:26 | 58.57026 | -34.26997 | 38116 ft | 531 kts | 243° |
| 2026-04-24 08:26 | 58.53945 | -34.39768 | 38094 ft | 531 kts | 243° |
| 2026-04-24 08:27 | 58.50831 | -34.52604 | 38116 ft | 532 kts | 243° |
| 2026-04-24 08:27 | 58.47704 | -34.65415 | 38112 ft | 532 kts | 242° |
| 2026-04-24 08:28 | 58.44565 | -34.78202 | 38099 ft | 532 kts | 242° |
| 2026-04-24 08:28 | 58.41413 | -34.90965 | 38100 ft | 532 kts | 242° |
| 2026-04-24 08:29 | 58.38246 | -35.03718 | 38095 ft | 532 kts | 242° |
| 2026-04-24 08:29 | 58.35065 | -35.16450 | 38093 ft | 532 kts | 242° |
| 2026-04-24 08:30 | 58.31875 | -35.29150 | 38091 ft | 532 kts | 242° |
| 2026-04-24 08:30 | 58.28664 | -35.41853 | 38088 ft | 532 kts | 242° |
| 2026-04-24 08:31 | 58.25468 | -35.54432 | 38086 ft | 532 kts | 242° |
| 2026-04-24 08:31 | 58.22217 | -35.67148 | 38082 ft | 532 kts | 242° |
| 2026-04-24 08:32 | 58.18996 | -35.79680 | 38081 ft | 532 kts | 242° |
| 2026-04-24 08:32 | 58.15740 | -35.92275 | 38082 ft | 532 kts | 241° |
| 2026-04-24 08:33 | 58.12474 | -36.04837 | 38077 ft | 532 kts | 241° |
| 2026-04-24 08:33 | 58.09194 | -36.17383 | 38072 ft | 532 kts | 241° |
| 2026-04-24 08:34 | 58.05900 | -36.29914 | 38062 ft | 532 kts | 241° |
| 2026-04-24 08:34 | 58.02594 | -36.42421 | 38070 ft | 532 kts | 241° |
| 2026-04-24 08:35 | 57.99280 | -36.54886 | 38061 ft | 532 kts | 241° |
| 2026-04-24 08:35 | 57.95949 | -36.67347 | 38063 ft | 532 kts | 241° |
| 2026-04-24 08:36 | 57.92610 | -36.79771 | 38060 ft | 532 kts | 240° |
| 2026-04-24 08:36 | 57.89258 | -36.92176 | 38056 ft | 532 kts | 240° |
| 2026-04-24 08:37 | 57.85917 | -37.04470 | 38057 ft | 532 kts | 240° |
| 2026-04-24 08:37 | 57.82519 | -37.16908 | 38054 ft | 531 kts | 240° |
| 2026-04-24 08:38 | 57.79137 | -37.29219 | 38048 ft | 531 kts | 240° |
| 2026-04-24 08:38 | 57.75739 | -37.41524 | 38047 ft | 531 kts | 240° |
| 2026-04-24 08:39 | 57.72334 | -37.53786 | 38047 ft | 531 kts | 240° |
| 2026-04-24 08:39 | 57.68938 | -37.65949 | 38042 ft | 531 kts | 240° |
| 2026-04-24 08:40 | 57.65508 | -37.78174 | 38045 ft | 531 kts | 240° |
| 2026-04-24 08:40 | 57.62065 | -37.90377 | 38036 ft | 531 kts | 240° |
| 2026-04-24 08:41 | 57.58616 | -38.02538 | 38038 ft | 531 kts | 240° |
| 2026-04-24 08:41 | 57.55154 | -38.14677 | 38035 ft | 530 kts | 240° |
| 2026-04-24 08:42 | 57.51676 | -38.26810 | 38034 ft | 530 kts | 240° |
| 2026-04-24 08:42 | 57.48216 | -38.38819 | 38033 ft | 530 kts | 240° |
| 2026-04-24 08:43 | 57.44721 | -38.50884 | 38030 ft | 530 kts | 239° |
| 2026-04-24 08:43 | 57.41217 | -38.62918 | 38027 ft | 530 kts | 239° |
| 2026-04-24 08:44 | 57.37701 | -38.74933 | 38026 ft | 530 kts | 239° |
| 2026-04-24 08:44 | 57.34775 | -38.84885 | 38028 ft | 529 kts | 239° |
| 2026-04-24 08:45 | 57.31243 | -38.96837 | 38025 ft | 529 kts | 239° |
| 2026-04-24 08:45 | 57.27695 | -39.08785 | 38024 ft | 529 kts | 239° |
| 2026-04-24 08:46 | 57.24141 | -39.20693 | 38020 ft | 529 kts | 239° |
| 2026-04-24 08:46 | 57.20574 | -39.32580 | 38018 ft | 529 kts | 239° |
| 2026-04-24 08:47 | 57.16999 | -39.44439 | 38021 ft | 529 kts | 239° |
| 2026-04-24 08:47 | 57.13430 | -39.56213 | 38018 ft | 529 kts | 239° |
| 2026-04-24 08:48 | 57.09834 | -39.68021 | 38016 ft | 529 kts | 239° |
| 2026-04-24 08:48 | 57.06224 | -39.79816 | 38016 ft | 529 kts | 239° |
| 2026-04-24 08:49 | 57.02607 | -39.91574 | 38014 ft | 529 kts | 239° |
| 2026-04-24 08:49 | 56.98572 | -40.02800 | 38016 ft | 525 kts | 228° |
| 2026-04-24 08:50 | 56.93830 | -40.12972 | 38011 ft | 525 kts | 226° |
| 2026-04-24 08:50 | 56.88965 | -40.22941 | 38006 ft | 525 kts | 226° |
| 2026-04-24 08:51 | 56.84083 | -40.32887 | 38001 ft | 525 kts | 226° |
| 2026-04-24 08:51 | 56.79247 | -40.42753 | 38001 ft | 525 kts | 226° |
| 2026-04-24 08:52 | 56.74376 | -40.52674 | 38000 ft | 525 kts | 226° |
| 2026-04-24 08:52 | 56.69492 | -40.62585 | 37998 ft | 525 kts | 226° |
| 2026-04-24 08:53 | 56.64604 | -40.72462 | 37995 ft | 525 kts | 226° |
| 2026-04-24 08:53 | 56.59710 | -40.82308 | 37994 ft | 525 kts | 226° |
| 2026-04-24 08:54 | 56.54814 | -40.92119 | 37994 ft | 525 kts | 226° |
| 2026-04-24 08:54 | 56.49901 | -41.01921 | 37991 ft | 525 kts | 226° |
| 2026-04-24 08:55 | 56.44991 | -41.11677 | 37987 ft | 525 kts | 225° |
| 2026-04-24 08:55 | 56.40069 | -41.21417 | 37983 ft | 524 kts | 225° |
| 2026-04-24 08:56 | 56.35144 | -41.31121 | 37984 ft | 524 kts | 225° |
| 2026-04-24 08:56 | 56.30209 | -41.40802 | 37987 ft | 524 kts | 225° |
| 2026-04-24 08:57 | 56.25270 | -41.50452 | 37988 ft | 524 kts | 225° |
| 2026-04-24 08:57 | 56.20356 | -41.60020 | 37982 ft | 524 kts | 225° |
| 2026-04-24 08:58 | 56.15406 | -41.69616 | 37969 ft | 524 kts | 225° |
| 2026-04-24 08:58 | 56.10443 | -41.79199 | 37978 ft | 524 kts | 225° |
| 2026-04-24 08:59 | 56.05472 | -41.88757 | 37973 ft | 524 kts | 225° |
| 2026-04-24 08:59 | 56.00498 | -41.98283 | 37967 ft | 524 kts | 225° |
| 2026-04-24 09:00 | 55.95506 | -42.07803 | 37969 ft | 525 kts | 225° |
| 2026-04-24 09:00 | 55.90512 | -42.17287 | 37966 ft | 524 kts | 225° |
| 2026-04-24 09:01 | 55.85514 | -42.26744 | 37958 ft | 524 kts | 225° |
| 2026-04-24 09:01 | 55.80498 | -42.36196 | 37963 ft | 524 kts | 225° |
| 2026-04-24 09:02 | 55.75491 | -42.45593 | 37972 ft | 524 kts | 224° |
| 2026-04-24 09:02 | 55.70463 | -42.54991 | 37964 ft | 524 kts | 224° |
| 2026-04-24 09:03 | 55.65436 | -42.64348 | 37959 ft | 524 kts | 224° |
| 2026-04-24 09:03 | 55.60404 | -42.73679 | 37956 ft | 524 kts | 224° |
| 2026-04-24 09:04 | 55.55371 | -42.82975 | 37955 ft | 523 kts | 224° |
| 2026-04-24 09:04 | 55.50324 | -42.92262 | 37952 ft | 523 kts | 224° |
| 2026-04-24 09:05 | 55.45315 | -43.01440 | 37956 ft | 523 kts | 224° |
| 2026-04-24 09:05 | 55.40234 | -43.10716 | 37956 ft | 523 kts | 224° |
| 2026-04-24 09:06 | 55.35230 | -43.19861 | 37952 ft | 523 kts | 227° |
| 2026-04-24 09:06 | 55.30292 | -43.29245 | 37948 ft | 523 kts | 227° |
| 2026-04-24 09:07 | 55.25299 | -43.38533 | 37954 ft | 523 kts | 226° |
| 2026-04-24 09:07 | 55.17700 | -43.52232 | 37945 ft | 522 kts | 225° |
| 2026-04-24 09:08 | 55.12617 | -43.61288 | 37947 ft | 522 kts | 225° |
| 2026-04-24 09:08 | 55.07526 | -43.70340 | 37942 ft | 522 kts | 225° |
| 2026-04-24 09:09 | 55.02432 | -43.79369 | 37936 ft | 522 kts | 225° |
| 2026-04-24 09:09 | 54.97335 | -43.88376 | 37940 ft | 522 kts | 225° |
| 2026-04-24 09:10 | 54.92234 | -43.97348 | 37942 ft | 522 kts | 225° |
| 2026-04-24 09:10 | 54.87124 | -44.06302 | 37936 ft | 521 kts | 225° |
| 2026-04-24 09:11 | 54.82012 | -44.15222 | 37935 ft | 521 kts | 225° |
| 2026-04-24 09:11 | 54.76897 | -44.24117 | 37931 ft | 521 kts | 225° |
| 2026-04-24 09:12 | 54.71776 | -44.32992 | 37928 ft | 520 kts | 225° |
| 2026-04-24 09:12 | 54.66686 | -44.41776 | 37924 ft | 520 kts | 225° |
| 2026-04-24 09:13 | 54.61562 | -44.50586 | 37929 ft | 520 kts | 225° |
| 2026-04-24 09:13 | 54.56429 | -44.59380 | 37924 ft | 519 kts | 225° |
| 2026-04-24 09:14 | 54.51301 | -44.68132 | 37926 ft | 519 kts | 225° |
| 2026-04-24 09:14 | 54.46169 | -44.76855 | 37922 ft | 518 kts | 224° |
| 2026-04-24 09:15 | 54.41035 | -44.85555 | 37921 ft | 518 kts | 224° |
| 2026-04-24 09:15 | 54.35896 | -44.94231 | 37921 ft | 518 kts | 224° |
| 2026-04-24 09:16 | 54.30751 | -45.02876 | 37912 ft | 518 kts | 224° |
| 2026-04-24 09:16 | 54.25637 | -45.11444 | 37917 ft | 517 kts | 224° |
| 2026-04-24 09:17 | 54.20492 | -45.20034 | 37919 ft | 517 kts | 224° |
| 2026-04-24 09:17 | 54.15343 | -45.28593 | 37922 ft | 516 kts | 224° |
| 2026-04-24 09:18 | 54.10187 | -45.37131 | 37904 ft | 516 kts | 224° |
| 2026-04-24 09:18 | 54.05038 | -45.45634 | 37903 ft | 516 kts | 224° |